createdAt,value
2018-11-05T00:01:57.455Z,82.34
2018-11-05T00:07:00.768Z,82.66
2018-11-05T00:12:04.562Z,82.11
2018-11-05T00:17:07.789Z,81.61
2018-11-05T00:22:11.061Z,82.24
2018-11-05T00:27:14.305Z,81.51
2018-11-05T00:32:17.547Z,81.93
2018-11-05T00:37:20.714Z,82.13
2018-11-05T00:42:23.946Z,81.81
2018-11-05T00:47:27.178Z,81.89
2018-11-05T00:52:30.434Z,82.48
2018-11-05T00:57:33.654Z,82.33
2018-11-05T01:02:37.146Z,82.63
2018-11-05T01:07:41.338Z,82.59
2018-11-05T01:12:44.616Z,83.04
2018-11-05T01:17:47.847Z,83.36
2018-11-05T01:22:51.079Z,84.04
2018-11-05T01:27:54.283Z,82.67
2018-11-05T01:32:57.443Z,82.94
2018-11-05T01:38:00.774Z,83.92
2018-11-05T01:43:04.120Z,84.45
2018-11-05T01:48:07.630Z,84.40
2018-11-05T01:53:10.971Z,84.77
2018-11-05T01:58:14.202Z,84.39
2018-11-05T02:03:17.386Z,84.05
2018-11-05T02:08:20.650Z,84.18
2018-11-05T02:13:23.873Z,84.66
2018-11-05T02:18:27.014Z,84.11
2018-11-05T02:23:30.262Z,84.10
2018-11-05T02:28:33.482Z,84.30
2018-11-05T02:33:36.706Z,83.61
2018-11-05T02:38:39.909Z,83.09
2018-11-05T02:43:43.084Z,82.94
2018-11-05T02:48:46.336Z,83.10
2018-11-05T02:53:49.545Z,84.53
2018-11-05T02:58:52.838Z,84.49
2018-11-05T03:03:56.106Z,84.18
2018-11-05T03:08:59.330Z,83.81
2018-11-05T03:14:02.550Z,84.25
2018-11-05T03:19:06.265Z,84.92
2018-11-05T03:24:09.455Z,84.92
2018-11-05T03:29:12.643Z,84.52
2018-11-05T03:34:15.842Z,84.04
2018-11-05T03:39:19.046Z,83.91
2018-11-05T03:44:22.252Z,82.80
2018-11-05T03:49:25.435Z,82.86
2018-11-05T03:54:28.695Z,84.13
2018-11-05T03:59:32.574Z,84.63
2018-11-05T04:04:35.791Z,85.05
2018-11-05T04:09:38.981Z,85.06
2018-11-05T04:14:42.297Z,85.15
2018-11-05T04:19:45.486Z,83.37
2018-11-05T04:24:48.743Z,83.70
2018-11-05T04:29:51.914Z,84.91
2018-11-05T04:34:55.122Z,85.04
2018-11-05T04:39:58.322Z,84.33
2018-11-05T04:45:01.548Z,83.07
2018-11-05T04:50:07.503Z,82.99
2018-11-05T04:55:10.935Z,83.56
2018-11-05T05:00:16.391Z,83.83
2018-11-05T05:05:19.594Z,82.90
2018-11-05T05:10:22.829Z,82.60
2018-11-05T05:15:26.136Z,81.72
2018-11-05T05:20:29.399Z,82.05
2018-11-05T05:25:32.601Z,82.90
2018-11-05T05:30:35.771Z,82.72
2018-11-05T05:35:38.983Z,83.31
2018-11-05T05:40:42.270Z,83.53
2018-11-05T05:45:45.438Z,83.48
2018-11-05T05:50:48.683Z,83.12
2018-11-05T05:55:51.935Z,82.69
2018-11-05T06:00:55.330Z,82.49
2018-11-05T06:05:58.692Z,82.21
2018-11-05T06:11:01.891Z,82.18
2018-11-05T06:16:05.295Z,82.61
2018-11-05T06:21:08.455Z,82.32
2018-11-05T06:26:11.774Z,82.05
2018-11-05T06:31:14.995Z,82.22
2018-11-05T06:36:30.092Z,82.09
2018-11-05T06:41:33.534Z,82.63
2018-11-05T06:46:36.687Z,82.56
2018-11-05T06:51:40.071Z,82.76
2018-11-05T06:56:43.502Z,80.36
2018-11-05T07:01:46.718Z,81.19
2018-11-05T07:06:49.946Z,81.62
2018-11-05T07:11:53.189Z,82.48
2018-11-05T07:16:56.523Z,81.85
2018-11-05T07:22:00.074Z,78.82
2018-11-05T07:27:03.323Z,79.57
2018-11-05T07:32:06.642Z,80.65
2018-11-05T07:37:09.898Z,80.39
2018-11-05T07:42:13.123Z,79.48
2018-11-05T07:47:16.341Z,78.38
2018-11-05T07:52:19.587Z,76.75
2018-11-05T07:57:22.833Z,76.43
2018-11-05T08:02:26.111Z,77.01
2018-11-05T08:07:29.355Z,74.87
2018-11-05T08:12:32.632Z,74.73
2018-11-05T08:17:36.043Z,75.15
2018-11-05T08:22:39.308Z,73.78
2018-11-05T08:27:42.548Z,72.35
2018-11-05T08:32:46.364Z,73.44
2018-11-05T08:37:50.174Z,73.42
2018-11-05T08:42:54.198Z,73.99
2018-11-05T08:47:57.425Z,72.37
2018-11-05T08:53:00.655Z,72.52
2018-11-05T08:58:03.934Z,72.76
2018-11-05T09:03:08.189Z,71.46
2018-11-05T09:08:11.458Z,71.26
2018-11-05T09:13:14.695Z,73.89
2018-11-05T09:18:17.936Z,72.91
2018-11-05T09:23:21.212Z,72.37
2018-11-05T09:28:24.491Z,71.56
2018-11-05T09:33:27.749Z,72.37
2018-11-05T09:38:30.982Z,72.90
2018-11-05T09:43:34.191Z,72.40
2018-11-05T09:48:37.421Z,72.21
2018-11-05T09:53:40.939Z,72.03
2018-11-05T09:58:44.362Z,71.37
2018-11-05T10:03:53.987Z,71.89
2018-11-05T10:08:57.220Z,72.42
2018-11-05T10:14:00.421Z,72.38
2018-11-05T10:19:03.863Z,73.15
2018-11-05T10:24:07.148Z,73.48
2018-11-05T10:29:10.378Z,72.53
2018-11-05T10:34:13.663Z,71.77
2018-11-05T10:39:16.921Z,71.95
2018-11-05T10:44:20.106Z,70.90
2018-11-05T10:49:23.358Z,70.55
2018-11-05T10:54:26.641Z,68.46
2018-11-05T10:59:29.894Z,68.96
2018-11-05T11:04:33.996Z,66.93
2018-11-05T11:09:37.249Z,67.65
2018-11-05T11:14:40.429Z,66.84
2018-11-05T11:19:43.676Z,67.76
2018-11-05T11:24:46.898Z,66.25
2018-11-05T11:29:50.156Z,65.29
2018-11-05T11:34:53.426Z,65.28
2018-11-05T11:39:56.695Z,64.73
2018-11-05T11:45:00.110Z,63.29
2018-11-05T11:50:03.803Z,62.85
2018-11-05T11:55:09.802Z,64.00
2018-11-05T12:00:16.029Z,64.08
2018-11-05T12:05:19.509Z,64.81
2018-11-05T12:10:23.722Z,65.19
2018-11-05T12:15:27.012Z,65.33
2018-11-05T12:20:30.358Z,65.53
2018-11-05T12:25:33.493Z,64.35
2018-11-05T12:30:36.715Z,64.42
2018-11-05T12:35:39.947Z,64.06
2018-11-05T12:40:43.187Z,63.99
2018-11-05T12:45:46.430Z,64.41
2018-11-05T12:50:49.870Z,65.01
2018-11-05T12:55:53.064Z,65.96
2018-11-05T13:00:56.332Z,64.75
2018-11-05T13:05:59.662Z,63.42
2018-11-05T13:11:02.907Z,63.50
2018-11-05T13:16:06.161Z,63.25
2018-11-05T13:21:09.406Z,61.87
2018-11-05T13:26:13.301Z,63.29
2018-11-05T13:31:16.531Z,63.57
2018-11-05T13:36:19.772Z,63.15
2018-11-05T13:41:23.075Z,62.65
2018-11-05T13:46:26.567Z,63.00
2018-11-05T13:51:29.771Z,63.03
2018-11-05T13:56:33.052Z,61.36
2018-11-05T14:01:36.254Z,62.01
2018-11-05T14:06:39.454Z,61.37
2018-11-05T14:11:42.699Z,60.69
2018-11-05T14:16:45.938Z,61.34
2018-11-05T14:21:49.173Z,61.47
2018-11-05T14:26:52.454Z,60.97
2018-11-05T14:31:55.661Z,61.37
2018-11-05T14:36:59.115Z,61.63
2018-11-05T14:42:02.129Z,61.07
2018-11-05T14:47:05.360Z,62.20
2018-11-05T14:52:08.596Z,64.16
2018-11-05T14:57:12.135Z,64.05
2018-11-05T15:02:21.058Z,64.83
2018-11-05T15:07:24.275Z,66.29
2018-11-05T15:12:27.518Z,67.10
2018-11-05T15:17:30.767Z,68.41
2018-11-05T15:22:34.025Z,68.92
2018-11-05T15:27:38.040Z,69.84
2018-11-05T15:32:41.576Z,70.58
2018-11-05T15:37:44.976Z,71.29
2018-11-05T15:42:48.288Z,71.79
2018-11-05T15:47:51.516Z,71.90
2018-11-05T15:52:55.277Z,72.38
2018-11-05T15:57:58.126Z,72.81
2018-11-05T16:03:01.823Z,73.59
2018-11-05T16:08:05.553Z,74.40
2018-11-05T16:13:08.756Z,74.36
2018-11-05T16:18:12.018Z,74.50
2018-11-05T16:23:15.238Z,75.33
2018-11-05T16:28:18.480Z,75.98
2018-11-05T16:33:21.832Z,76.51
2018-11-05T16:38:25.292Z,76.91
2018-11-05T16:43:28.554Z,77.68
2018-11-05T16:48:31.811Z,77.93
2018-11-05T16:53:41.825Z,78.44
2018-11-05T16:58:45.150Z,78.17
2018-11-05T17:03:48.342Z,78.42
2018-11-05T17:08:51.589Z,78.79
2018-11-05T17:13:54.908Z,79.02
2018-11-05T17:18:58.147Z,78.88
2018-11-05T17:24:08.214Z,79.93
2018-11-05T17:29:11.463Z,79.56
2018-11-05T17:34:14.853Z,80.35
2018-11-05T17:39:18.157Z,80.88
2018-11-05T17:44:21.456Z,80.03
2018-11-05T17:49:24.822Z,80.46
2018-11-05T17:54:28.225Z,80.81
2018-11-05T17:59:31.563Z,80.48
2018-11-05T18:04:35.269Z,80.76
2018-11-05T18:09:38.476Z,80.79
2018-11-05T18:14:42.021Z,81.23
2018-11-05T18:19:45.307Z,81.35
2018-11-05T18:24:48.567Z,80.97
2018-11-05T18:29:51.875Z,81.47
2018-11-05T18:34:55.190Z,81.96
2018-11-05T18:39:58.477Z,81.14
2018-11-05T18:45:01.808Z,81.39
2018-11-05T18:50:08.379Z,80.82
2018-11-05T18:55:13.078Z,80.38
2018-11-05T19:00:22.155Z,80.70
2018-11-05T19:05:26.797Z,81.42
2018-11-05T19:10:30.130Z,81.14
2018-11-05T19:15:33.517Z,81.15
2018-11-05T19:20:36.889Z,80.95
2018-11-05T19:25:40.188Z,81.66
2018-11-05T19:30:43.525Z,81.07
2018-11-05T19:35:46.904Z,81.28
2018-11-05T19:40:50.222Z,80.50
2018-11-05T19:45:53.549Z,81.50
2018-11-05T19:50:56.930Z,81.23
2018-11-05T19:56:00.273Z,82.24
2018-11-05T20:01:03.845Z,82.54
2018-11-05T20:06:07.336Z,83.45
2018-11-05T20:11:10.535Z,84.06
2018-11-05T20:16:14.449Z,83.30
2018-11-05T20:21:19.747Z,82.04
2018-11-05T20:26:23.130Z,81.99
2018-11-05T20:31:30.051Z,82.06
2018-11-05T20:36:33.505Z,81.69
2018-11-05T20:41:37.464Z,81.88
2018-11-05T20:46:41.159Z,82.35
2018-11-05T20:51:45.320Z,82.69
2018-11-05T20:56:49.560Z,82.17
2018-11-05T21:01:52.886Z,82.28
2018-11-05T21:06:56.288Z,81.88
2018-11-05T21:11:59.613Z,81.77
2018-11-05T21:17:03.084Z,82.97
2018-11-05T21:22:12.598Z,82.33
2018-11-05T21:27:17.207Z,82.23
2018-11-05T21:32:21.911Z,80.25
2018-11-05T21:37:25.382Z,81.35
2018-11-05T21:42:29.875Z,81.99
2018-11-05T21:47:33.251Z,82.91
2018-11-05T21:52:42.184Z,82.87
2018-11-05T21:57:47.464Z,82.76
2018-11-05T22:02:56.729Z,82.30
2018-11-05T22:08:00.168Z,81.96
2018-11-05T22:13:06.499Z,81.83
2018-11-05T22:18:14.236Z,82.11
2018-11-05T22:23:19.192Z,82.11
2018-11-05T22:28:23.066Z,82.00
2018-11-05T22:33:26.324Z,82.26
2018-11-05T22:38:29.659Z,81.68
2018-11-05T22:43:33.568Z,81.58
2018-11-05T22:48:47.369Z,82.68
2018-11-05T22:53:51.148Z,82.40
2018-11-05T22:58:54.413Z,81.28
2018-11-05T23:04:00.232Z,80.95
2018-11-05T23:09:05.130Z,81.31
2018-11-05T23:14:10.755Z,81.56
2018-11-05T23:19:19.691Z,81.56
2018-11-05T23:24:23.463Z,80.66
2018-11-05T23:29:26.852Z,80.97
2018-11-05T23:34:30.335Z,82.63
2018-11-05T23:39:34.643Z,83.47
2018-11-05T23:44:40.989Z,82.16
2018-11-05T23:49:46.045Z,81.78
2018-11-05T23:54:51.187Z,81.07
2018-11-05T23:59:54.402Z,81.33
